Time;durP1;ratioP1;P1;durP2;ratioP2;P2;SDS_P1;SDS_P2;PMS_P1;PMS_P2;Temp;Humidity;BMP_temperature;BMP_pressure;BME280_temperature;BME280_humidity;BME280_pressure;Samples;Min_cycle;Max_cycle;Signal;HPM_P1;HPM_P2
2022/11/14 00:02:34;;;;;;;11.07;3.33;;;22.50;1.00;;;;;;4844611;29;20110;-49
2022/11/14 00:05:20;;;;;;;4.05;2.75;;;22.40;1.00;;;;;;4844186;29;20052;-48
2022/11/14 00:08:11;;;;;;;5.07;2.78;;;22.40;1.00;;;;;;4844587;29;20206;-51
2022/11/14 00:10:56;;;;;;;4.80;2.38;;;22.30;1.00;;;;;;4844295;29;20056;-49
2022/11/14 00:13:41;;;;;;;4.15;2.95;;;22.30;1.00;;;;;;4843820;29;20061;-48
2022/11/14 00:16:27;;;;;;;5.60;3.50;;;22.20;1.00;;;;;;4844205;29;20052;-49
2022/11/14 00:19:12;;;;;;;7.28;3.45;;;22.20;1.00;;;;;;4844101;29;20053;-50
2022/11/14 00:21:59;;;;;;;7.53;3.38;;;22.10;1.00;;;;;;4844391;29;20053;-49
2022/11/14 00:24:44;;;;;;;6.38;2.78;;;22.10;1.00;;;;;;4844398;29;20065;-50
2022/11/14 00:27:30;;;;;;;7.32;2.85;;;22.00;1.00;;;;;;4843940;29;20573;-47
2022/11/14 00:30:15;;;;;;;5.07;3.03;;;22.00;1.00;;;;;;4843954;29;20149;-49
2022/11/14 00:33:00;;;;;;;4.90;2.67;;;21.90;1.00;;;;;;4843984;29;20519;-47
2022/11/14 00:36:04;;;;;;;5.07;2.85;;;21.90;1.00;;;;;;4843783;29;20146;-48
2022/11/14 00:38:53;;;;;;;9.20;3.45;;;21.80;1.00;;;;;;4843946;29;20052;-49
2022/11/14 00:41:39;;;;;;;6.38;3.38;;;21.70;1.00;;;;;;4843710;29;20523;-48
2022/11/14 00:44:25;;;;;;;8.95;3.58;;;21.70;1.00;;;;;;4843698;29;20060;-48
2022/11/14 00:47:10;;;;;;;5.85;3.58;;;21.60;1.00;;;;;;4843857;29;20065;-49
2022/11/14 00:49:56;;;;;;;5.30;3.08;;;21.60;1.00;;;;;;4843253;29;20142;-48
2022/11/14 00:52:41;;;;;;;7.30;3.30;;;21.50;1.00;;;;;;4844247;29;20065;-49
2022/11/14 00:55:26;;;;;;;7.03;4.13;;;21.50;1.00;;;;;;4843553;29;20055;-48
2022/11/14 00:58:12;;;;;;;4.93;3.63;;;21.40;1.00;;;;;;4843428;29;20060;-48
2022/11/14 01:00:58;;;;;;;6.65;4.13;;;21.40;1.00;;;;;;4843578;29;20133;-48
2022/11/14 01:03:47;;;;;;;6.85;4.15;;;21.30;1.00;;;;;;4843463;29;20053;-49
2022/11/14 01:06:32;;;;;;;8.43;3.85;;;21.20;1.00;;;;;;4843938;29;20064;-49
2022/11/14 01:09:17;;;;;;;6.05;3.58;;;21.20;1.00;;;;;;4843315;29;20062;-51
2022/11/14 01:12:03;;;;;;;6.50;3.63;;;21.20;1.00;;;;;;4843028;29;20065;-49
2022/11/14 01:14:49;;;;;;;5.32;3.72;;;21.10;1.00;;;;;;4843189;29;20077;-49
2022/11/14 01:17:34;;;;;;;6.68;4.32;;;21.10;1.00;;;;;;4842447;29;20076;-50
2022/11/14 01:20:20;;;;;;;4.68;3.55;;;21.00;1.00;;;;;;4842705;29;20052;-49
2022/11/14 01:23:06;;;;;;;6.22;3.95;;;21.00;1.00;;;;;;4843357;29;20134;-48
2022/11/14 01:25:51;;;;;;;6.80;4.25;;;20.90;1.00;;;;;;4843351;29;20511;-49
2022/11/14 01:28:38;;;;;;;7.22;4.47;;;20.90;1.00;;;;;;4842806;29;20057;-49
2022/11/14 01:31:25;;;;;;;9.77;4.25;;;20.90;1.00;;;;;;4843054;29;20060;-52
2022/11/14 01:34:10;;;;;;;7.88;4.88;;;20.80;1.00;;;;;;4842829;29;20384;-49
2022/11/14 01:36:55;;;;;;;6.00;4.55;;;20.70;1.00;;;;;;4843008;29;20056;-53
2022/11/14 01:39:40;;;;;;;8.43;5.65;;;20.70;1.00;;;;;;4842423;29;20061;-49
2022/11/14 01:42:26;;;;;;;8.88;5.10;;;20.70;1.00;;;;;;4843178;29;20641;-51
2022/11/14 01:45:46;;;;;;;6.45;4.80;;;20.60;1.00;;;;;;4842822;29;20476;-49
2022/11/14 01:48:46;;;;;;;7.25;5.32;;;20.50;1.00;;;;;;4842568;29;20057;-49
2022/11/14 01:51:34;;;;;;;7.07;5.80;;;20.50;1.00;;;;;;4842771;29;20102;-51
2022/11/14 01:54:25;;;;;;;7.80;5.75;;;20.50;1.00;;;;;;4842829;29;20057;-51
2022/11/14 01:57:13;;;;;;;8.93;6.05;;;20.40;1.00;;;;;;4842607;29;20061;-50
2022/11/14 02:00:04;;;;;;;6.90;5.50;;;20.40;1.00;;;;;;4842257;29;20442;-51
2022/11/14 02:02:50;;;;;;;8.77;5.50;;;20.40;1.00;;;;;;4842437;29;20053;-47
2022/11/14 02:05:37;;;;;;;7.72;5.60;;;20.30;1.00;;;;;;4842430;29;20057;-49
2022/11/14 02:08:24;;;;;;;7.22;5.63;;;20.30;1.00;;;;;;4842529;29;20069;-48
2022/11/14 02:11:12;;;;;;;8.35;5.88;;;20.30;1.00;;;;;;4842319;29;20416;-49
2022/11/14 02:13:59;;;;;;;11.18;7.07;;;20.20;1.00;;;;;;4843048;29;20154;-47
2022/11/14 02:16:44;;;;;;;9.40;6.68;;;20.20;1.00;;;;;;4842516;29;20057;-47
2022/11/14 02:20:04;;;;;;;8.15;6.38;;;20.20;1.00;;;;;;4842017;29;20054;-48
2022/11/14 02:22:50;;;;;;;11.45;5.88;;;20.10;1.00;;;;;;4842492;29;20057;-49
2022/11/14 02:25:36;;;;;;;7.45;5.50;;;20.10;1.00;;;;;;4842428;29;20133;-51
2022/11/14 02:28:22;;;;;;;7.05;5.63;;;20.00;1.00;;;;;;4842555;29;20070;-48
2022/11/14 02:31:08;;;;;;;8.15;6.20;;;20.00;1.00;;;;;;4845980;29;20122;-52
2022/11/14 02:33:53;;;;;;;7.63;6.22;;;20.00;1.00;;;;;;4846377;29;20060;-50
2022/11/14 02:36:38;;;;;;;8.48;6.47;;;19.90;1.00;;;;;;4845850;29;20053;-47
2022/11/14 02:39:24;;;;;;;8.68;6.13;;;19.90;1.00;;;;;;4845344;29;20182;-49
2022/11/14 02:42:09;;;;;;;8.35;5.97;;;19.90;1.00;;;;;;4846116;29;20453;-48
2022/11/14 02:44:55;;;;;;;10.70;7.25;;;19.90;1.00;;;;;;4845680;29;20110;-48
2022/11/14 02:47:40;;;;;;;9.55;6.25;;;19.90;1.00;;;;;;4845929;29;20420;-51
2022/11/14 02:50:26;;;;;;;9.52;6.18;;;19.80;1.00;;;;;;4845151;29;20124;-49
2022/11/14 02:53:11;;;;;;;9.32;6.60;;;19.80;1.00;;;;;;4845787;29;20060;-48
2022/11/14 02:55:56;;;;;;;8.02;6.07;;;19.80;1.00;;;;;;4845640;29;20068;-48
2022/11/14 02:58:42;;;;;;;8.48;6.65;;;19.70;1.00;;;;;;4845183;29;20523;-51
2022/11/14 03:01:27;;;;;;;8.65;6.35;;;19.70;1.00;;;;;;4845239;29;20048;-48
2022/11/14 03:04:13;;;;;;;10.90;6.88;;;19.70;1.00;;;;;;4845926;29;20057;-48
2022/11/14 03:06:59;;;;;;;10.77;6.85;;;19.60;1.00;;;;;;4845206;29;20515;-49
2022/11/14 03:09:44;;;;;;;12.32;7.22;;;19.60;1.00;;;;;;4845112;29;20567;-47
2022/11/14 03:12:30;;;;;;;10.93;6.70;;;19.60;1.00;;;;;;4863084;29;20056;-51
2022/11/14 03:15:15;;;;;;;9.52;6.60;;;19.50;1.00;;;;;;4864003;29;20144;-50
2022/11/14 03:18:00;;;;;;;10.82;7.05;;;19.50;1.00;;;;;;4863129;29;20049;-47
2022/11/14 03:20:46;;;;;;;10.93;7.72;;;19.50;1.00;;;;;;4863694;29;20056;-50
2022/11/14 03:23:32;;;;;;;10.00;7.28;;;19.50;1.00;;;;;;4863329;29;20048;-49
2022/11/14 03:26:18;;;;;;;10.98;6.45;;;19.40;1.00;;;;;;4863890;29;20510;-47
2022/11/14 03:29:03;;;;;;;9.70;6.22;;;19.40;1.00;;;;;;4863572;29;20068;-50
2022/11/14 03:31:49;;;;;;;9.88;6.97;;;19.40;1.00;;;;;;4863608;29;20127;-48
2022/11/14 03:34:34;;;;;;;9.95;6.85;;;19.40;1.00;;;;;;4863583;29;20060;-48
2022/11/14 03:37:20;;;;;;;10.50;6.22;;;19.30;1.00;;;;;;4863624;29;20105;-48
2022/11/14 03:40:06;;;;;;;11.30;7.85;;;19.30;1.00;;;;;;4862364;29;20057;-48
2022/11/14 03:42:52;;;;;;;11.25;7.05;;;19.30;1.00;;;;;;4874865;29;20422;-49
2022/11/14 03:45:37;;;;;;;15.55;6.43;;;19.30;1.00;;;;;;4863738;29;20190;-48
2022/11/14 03:48:22;;;;;;;11.98;7.40;;;19.30;1.00;;;;;;4862778;29;20061;-47
2022/11/14 03:51:08;;;;;;;13.45;7.47;;;19.20;1.00;;;;;;4863461;29;20144;-51
2022/11/14 03:53:53;;;;;;;10.55;7.25;;;19.20;1.00;;;;;;4863097;29;20052;-48
2022/11/14 03:56:39;;;;;;;11.57;8.48;;;19.20;1.00;;;;;;4862754;29;20060;-52
2022/11/14 03:59:24;;;;;;;13.63;7.88;;;19.20;1.00;;;;;;4862693;29;20411;-50
2022/11/14 04:02:09;;;;;;;18.05;8.93;;;19.10;1.00;;;;;;4862489;29;20522;-49
2022/11/14 04:04:55;;;;;;;21.10;8.63;;;19.10;1.00;;;;;;4862587;29;20056;-48
2022/11/14 04:07:40;;;;;;;12.05;7.50;;;19.10;1.00;;;;;;4863123;29;20060;-48
2022/11/14 04:10:26;;;;;;;12.43;8.30;;;19.00;1.00;;;;;;4862211;29;20431;-48
2022/11/14 04:13:11;;;;;;;13.95;8.07;;;19.00;1.00;;;;;;4862583;29;20148;-50
2022/11/14 04:15:57;;;;;;;13.52;8.30;;;19.00;1.00;;;;;;4862742;29;20122;-48
2022/11/14 04:18:43;;;;;;;13.20;7.88;;;19.00;1.00;;;;;;4862500;29;20086;-50
2022/11/14 04:21:28;;;;;;;13.65;8.18;;;19.00;1.00;;;;;;4862609;29;20181;-49
2022/11/14 04:24:14;;;;;;;13.38;7.68;;;19.00;1.00;;;;;;4862478;29;20060;-49
2022/11/14 04:26:59;;;;;;;12.85;8.63;;;18.90;1.00;;;;;;4862372;29;20414;-51
2022/11/14 04:29:44;;;;;;;10.82;7.75;;;18.90;1.00;;;;;;4861950;29;20140;-46
2022/11/14 04:32:30;;;;;;;12.25;7.85;;;18.90;1.00;;;;;;4862542;29;20052;-49
2022/11/14 04:35:15;;;;;;;13.05;8.98;;;18.90;1.00;;;;;;4862178;29;20109;-48
2022/11/14 04:38:01;;;;;;;15.52;8.45;;;18.90;1.00;;;;;;4862008;29;20580;-48
2022/11/14 04:40:53;;;;;;;14.88;8.88;;;18.80;1.00;;;;;;4862527;29;20049;-50
2022/11/14 04:43:38;;;;;;;13.88;9.18;;;18.80;1.00;;;;;;4862541;29;20408;-48
2022/11/14 04:46:23;;;;;;;13.75;8.52;;;18.80;1.00;;;;;;4862558;29;20052;-47
2022/11/14 04:49:09;;;;;;;13.65;9.38;;;18.80;1.00;;;;;;4861544;29;20133;-47
2022/11/14 04:51:54;;;;;;;14.20;8.63;;;18.80;1.00;;;;;;4862114;29;20519;-50
2022/11/14 04:54:39;;;;;;;15.15;8.88;;;18.70;1.00;;;;;;4861978;29;20411;-49
2022/11/14 04:57:25;;;;;;;14.13;8.13;;;18.70;1.00;;;;;;4862117;29;20072;-53
2022/11/14 05:00:12;;;;;;;13.27;7.82;;;18.70;1.00;;;;;;4861299;29;20052;-52
2022/11/14 05:02:58;;;;;;;12.55;8.40;;;18.70;1.00;;;;;;4861856;29;20518;-50
2022/11/14 05:05:44;;;;;;;14.70;8.68;;;18.70;1.00;;;;;;4861879;29;20491;-52
2022/11/14 05:08:29;;;;;;;13.32;8.90;;;18.70;1.00;;;;;;4862111;29;20057;-48
2022/11/14 05:11:17;;;;;;;12.85;8.05;;;18.60;1.00;;;;;;4861409;29;20057;-49
2022/11/14 05:14:02;;;;;;;11.80;8.32;;;18.60;1.00;;;;;;4861755;29;20064;-48
2022/11/14 05:16:48;;;;;;;16.63;10.27;;;18.60;1.00;;;;;;4862022;29;20143;-51
2022/11/14 05:19:33;;;;;;;15.95;9.32;;;18.50;1.00;;;;;;4861074;29;20056;-50
2022/11/14 05:22:19;;;;;;;15.35;10.00;;;18.50;1.00;;;;;;4861543;29;20053;-49
2022/11/14 05:25:05;;;;;;;14.73;9.95;;;18.60;1.00;;;;;;4861396;29;20516;-50
2022/11/14 05:27:51;;;;;;;16.05;9.15;;;18.50;1.00;;;;;;4861844;29;20057;-48
2022/11/14 05:30:36;;;;;;;16.42;9.60;;;18.50;1.00;;;;;;4861052;29;20449;-51
2022/11/14 05:33:22;;;;;;;15.30;9.15;;;18.50;1.00;;;;;;4861872;29;20072;-52
2022/11/14 05:36:13;;;;;;;13.48;9.65;;;18.50;1.00;;;;;;4861479;29;20061;-49
2022/11/14 05:38:58;;;;;;;19.40;10.18;;;18.50;1.00;;;;;;4860860;29;20052;-48
2022/11/14 05:41:44;;;;;;;16.13;9.23;;;18.40;1.00;;;;;;4861530;29;20061;-52
2022/11/14 05:44:29;;;;;;;17.35;9.75;;;18.40;1.00;;;;;;4861037;29;20060;-52
2022/11/14 05:47:15;;;;;;;14.63;10.10;;;18.40;1.00;;;;;;4861231;29;20389;-47
2022/11/14 05:50:00;;;;;;;16.58;10.25;;;18.40;1.00;;;;;;4861101;29;20145;-48
2022/11/14 05:52:45;;;;;;;15.45;9.70;;;18.40;1.00;;;;;;4860891;29;20052;-48
2022/11/14 05:55:31;;;;;;;15.07;9.25;;;18.40;1.00;;;;;;4861114;29;20061;-49
2022/11/14 05:58:16;;;;;;;14.45;9.30;;;18.40;1.00;;;;;;4859710;29;20066;-51
2022/11/14 06:01:08;;;;;;;14.45;9.50;;;18.30;1.00;;;;;;4860773;29;20526;-49
2022/11/14 06:03:53;;;;;;;17.45;9.90;;;18.30;1.00;;;;;;4861635;29;20080;-46
2022/11/14 06:06:38;;;;;;;15.10;10.38;;;18.30;1.00;;;;;;4865320;29;20141;-49
2022/11/14 06:09:24;;;;;;;15.43;9.95;;;18.30;1.00;;;;;;4864606;29;20558;-47
2022/11/14 06:12:09;;;;;;;15.32;9.23;;;18.30;1.00;;;;;;4864826;29;20140;-50
2022/11/14 06:14:55;;;;;;;17.60;9.75;;;18.30;1.00;;;;;;4864747;29;20076;-48
2022/11/14 06:17:40;;;;;;;17.02;9.70;;;18.30;1.00;;;;;;4864453;29;20153;-48
2022/11/14 06:20:25;;;;;;;15.30;9.73;;;18.20;1.00;;;;;;4864119;29;20146;-47
2022/11/14 06:23:11;;;;;;;14.98;10.50;;;18.20;1.00;;;;;;4864926;29;20117;-51
2022/11/14 06:26:01;;;;;;;16.38;9.57;;;18.20;1.00;;;;;;4864835;29;20129;-47
2022/11/14 06:28:48;;;;;;;16.02;10.75;;;18.20;1.00;;;;;;4864038;29;20416;-48
2022/11/14 06:31:33;;;;;;;14.85;9.50;;;18.20;1.00;;;;;;4864234;29;20055;-48
2022/11/14 06:34:19;;;;;;;17.25;9.88;;;18.20;1.00;;;;;;4864836;29;20563;-51
2022/11/14 06:37:04;;;;;;;14.48;10.20;;;18.20;1.00;;;;;;4864512;29;20060;-49
2022/11/14 06:39:50;;;;;;;14.23;9.48;;;18.10;1.00;;;;;;4864163;29;20061;-50
2022/11/14 06:42:35;;;;;;;16.55;10.93;;;18.10;1.00;;;;;;4864515;29;20056;-48
2022/11/14 06:45:21;;;;;;;17.60;10.45;;;18.10;1.00;;;;;;4864313;29;20071;-51
2022/11/14 06:48:06;;;;;;;18.20;10.68;;;18.10;1.00;;;;;;4864095;29;20077;-50
2022/11/14 06:50:53;;;;;;;16.95;10.13;;;18.10;1.00;;;;;;4863893;29;20063;-50
2022/11/14 06:53:39;;;;;;;15.32;9.35;;;18.10;1.00;;;;;;4863925;29;20061;-51
2022/11/14 06:56:24;;;;;;;15.10;10.68;;;18.10;1.00;;;;;;4864201;29;20231;-52
2022/11/14 06:59:10;;;;;;;15.35;10.32;;;18.10;1.00;;;;;;4863520;29;20522;-49
2022/11/14 07:01:56;;;;;;;18.27;11.25;;;18.00;1.00;;;;;;4861932;29;20086;-49
2022/11/14 07:04:41;;;;;;;17.17;10.88;;;18.00;1.00;;;;;;4857953;29;20424;-48
2022/11/14 07:07:27;;;;;;;17.35;11.40;;;18.00;1.00;;;;;;4858060;29;20166;-49
2022/11/14 07:10:13;;;;;;;17.52;10.65;;;18.00;1.00;;;;;;4863289;29;20133;-46
2022/11/14 07:12:58;;;;;;;15.52;9.57;;;18.00;1.00;;;;;;4863197;29;20586;-48
2022/11/14 07:15:53;;;;;;;16.52;11.43;;;17.90;1.00;;;;;;4863526;29;20182;-46
2022/11/14 07:18:38;;;;;;;15.73;10.48;;;17.90;1.00;;;;;;4863035;29;20056;-50
2022/11/14 07:21:26;;;;;;;19.05;11.93;;;17.90;1.00;;;;;;4863412;29;20156;-48
2022/11/14 07:24:11;;;;;;;19.38;11.70;;;17.90;1.00;;;;;;4864101;29;20174;-46
2022/11/14 07:26:57;;;;;;;16.73;10.90;;;17.90;1.00;;;;;;4863430;29;20149;-47
2022/11/14 07:29:42;;;;;;;16.92;11.18;;;17.90;1.00;;;;;;4863216;29;20060;-46
2022/11/14 07:32:27;;;;;;;17.83;11.15;;;17.90;1.00;;;;;;4863446;29;20095;-45
2022/11/14 07:35:13;;;;;;;16.35;10.80;;;17.90;1.00;;;;;;4863323;29;20557;-46
2022/11/14 07:38:03;;;;;;;20.80;10.68;;;17.90;1.00;;;;;;4863224;29;20114;-48
2022/11/14 07:40:57;;;;;;;19.27;11.40;;;17.80;1.00;;;;;;4861844;29;20522;-48
2022/11/14 07:43:44;;;;;;;21.08;11.35;;;17.80;1.00;;;;;;4863281;29;20060;-49
2022/11/14 07:46:29;;;;;;;15.82;9.68;;;17.80;1.00;;;;;;4863062;29;20056;-48
2022/11/14 07:49:15;;;;;;;18.73;11.60;;;17.80;1.00;;;;;;4862145;29;20144;-49
2022/11/14 07:52:00;;;;;;;18.83;11.57;;;17.80;1.00;;;;;;4862396;29;20064;-51
2022/11/14 07:54:46;;;;;;;18.52;12.27;;;17.80;1.00;;;;;;4862898;29;20428;-50
2022/11/14 07:57:31;;;;;;;17.38;10.60;;;17.80;1.00;;;;;;4862896;29;20083;-48
2022/11/14 08:00:24;;;;;;;28.05;12.13;;;17.80;1.00;;;;;;4862727;29;20498;-49
2022/11/14 08:03:10;;;;;;;19.88;11.18;;;17.70;1.00;;;;;;4862786;29;20061;-49
2022/11/14 08:06:06;;;;;;;19.75;11.70;;;17.70;1.00;;;;;;4863277;29;20057;-54
2022/11/14 08:08:51;;;;;;;21.77;11.48;;;17.70;1.00;;;;;;4862418;29;20280;-53
2022/11/14 08:11:49;;;;;;;19.15;12.50;;;17.70;1.00;;;;;;4862486;29;20061;-52
2022/11/14 08:14:34;;;;;;;21.05;11.13;;;17.70;1.00;;;;;;4862999;29;20053;-52
2022/11/14 08:17:21;;;;;;;18.23;10.57;;;17.70;1.00;;;;;;4862392;29;20132;-48
2022/11/14 08:20:08;;;;;;;18.50;10.15;;;17.70;1.00;;;;;;4862191;29;20158;-49
2022/11/14 08:23:00;;;;;;;32.05;12.45;;;17.80;1.00;;;;;;4862213;29;20105;-51
2022/11/14 08:25:46;;;;;;;16.88;10.35;;;17.70;1.00;;;;;;4853853;29;20053;-47
2022/11/14 08:28:31;;;;;;;21.08;11.40;;;17.70;1.00;;;;;;4847783;29;20060;-50
2022/11/14 08:31:17;;;;;;;18.65;10.75;;;17.80;1.00;;;;;;4843959;29;20064;-48
2022/11/14 08:34:02;;;;;;;17.85;10.38;;;17.80;1.00;;;;;;4844150;29;20061;-48
2022/11/14 08:36:48;;;;;;;19.55;10.93;;;17.80;1.00;;;;;;4843651;29;20068;-49
2022/11/14 08:39:34;;;;;;;16.02;9.95;;;17.80;1.00;;;;;;4843541;29;20057;-49
2022/11/14 08:42:19;;;;;;;15.35;10.05;;;17.80;1.00;;;;;;4843605;29;20049;-50
2022/11/14 08:45:05;;;;;;;25.10;10.73;;;17.80;1.00;;;;;;4843522;29;20142;-51
2022/11/14 08:47:51;;;;;;;18.27;10.02;;;17.80;1.00;;;;;;4843367;29;20515;-49
2022/11/14 08:50:37;;;;;;;17.50;10.32;;;17.80;1.00;;;;;;4843006;29;20105;-48
2022/11/14 08:53:22;;;;;;;28.55;11.60;;;17.80;1.00;;;;;;4843952;29;20102;-49
2022/11/14 08:56:10;;;;;;;17.15;10.60;;;17.80;1.00;;;;;;4843151;29;20130;-51
2022/11/14 08:58:55;;;;;;;15.95;9.85;;;17.80;1.00;;;;;;4843065;29;20060;-51
2022/11/14 09:01:41;;;;;;;16.20;9.35;;;17.80;1.00;;;;;;4843223;29;20057;-49
2022/11/14 09:04:26;;;;;;;15.77;9.73;;;17.80;1.00;;;;;;4843833;29;20630;-52
2022/11/14 09:07:12;;;;;;;14.23;9.65;;;17.80;1.00;;;;;;4843345;29;20056;-50
2022/11/14 09:09:58;;;;;;;18.77;11.02;;;17.80;1.00;;;;;;4842917;29;20060;-50
2022/11/14 09:12:43;;;;;;;16.58;10.43;;;17.80;1.00;;;;;;4843301;29;20061;-49
2022/11/14 09:15:29;;;;;;;15.27;9.32;;;17.80;1.00;;;;;;4843267;29;20056;-50
2022/11/14 09:18:14;;;;;;;13.95;9.45;;;17.80;1.00;;;;;;4851017;29;20514;-47
2022/11/14 09:21:02;;;;;;;17.48;9.70;;;17.80;1.00;;;;;;4854364;29;20401;-48
2022/11/14 09:23:47;;;;;;;16.05;9.85;;;17.80;1.00;;;;;;4842710;29;20175;-50
2022/11/14 09:26:33;;;;;;;22.38;10.27;;;17.80;1.00;;;;;;4843070;29;20416;-51
2022/11/14 09:29:18;;;;;;;19.15;10.75;;;17.80;1.00;;;;;;4843004;29;20133;-53
2022/11/14 09:32:03;;;;;;;18.63;10.18;;;17.80;1.00;;;;;;4842938;29;20061;-52
2022/11/14 09:34:49;;;;;;;14.40;9.38;;;17.80;1.00;;;;;;4847085;29;20084;-51
2022/11/14 09:37:34;;;;;;;16.65;10.38;;;17.80;1.00;;;;;;4865599;29;20136;-51
2022/11/14 09:40:20;;;;;;;17.80;10.13;;;17.80;1.00;;;;;;4857372;29;20110;-48
2022/11/14 09:43:45;;;;;;;18.00;11.07;;;17.80;1.00;;;;;;4852430;29;20057;-50
2022/11/14 09:46:40;;;;;;;18.70;10.63;;;17.80;1.00;;;;;;4852592;29;20137;-51
2022/11/14 09:49:41;;;;;;;15.02;10.23;;;17.80;1.00;;;;;;4851647;29;20138;-51
2022/11/14 09:52:37;;;;;;;17.45;10.27;;;17.80;1.00;;;;;;4852435;29;20076;-50
2022/11/14 09:55:28;;;;;;;17.33;10.48;;;17.90;1.00;;;;;;4848843;29;20061;-49
2022/11/14 09:58:21;;;;;;;15.20;9.52;;;17.90;1.00;;;;;;4843030;29;20187;-50
2022/11/14 10:01:19;;;;;;;15.77;9.88;;;17.90;1.00;;;;;;4842772;29;20060;-49
2022/11/14 10:04:18;;;;;;;16.05;10.13;;;17.90;1.00;;;;;;4842985;29;20404;-47
2022/11/14 10:07:12;;;;;;;17.15;9.27;;;17.90;1.00;;;;;;4843045;29;20049;-49
2022/11/14 10:10:13;;;;;;;13.43;9.00;;;17.90;1.00;;;;;;4842467;29;20130;-47
2022/11/14 10:13:13;;;;;;;14.65;8.38;;;18.00;1.00;;;;;;4842380;29;20057;-48
2022/11/14 10:16:11;;;;;;;10.65;6.80;;;18.00;1.00;;;;;;4842336;29;20107;-50
2022/11/14 10:19:18;;;;;;;14.75;8.60;;;18.00;1.00;;;;;;4851802;29;20060;-48
2022/11/14 10:22:15;;;;;;;12.98;7.57;;;18.00;1.00;;;;;;4852652;29;20106;-48
2022/11/14 10:25:24;;;;;;;15.27;7.82;;;18.00;1.00;;;;;;4858556;29;20140;-49
2022/11/14 10:28:24;;;;;;;13.05;7.60;;;18.10;1.00;;;;;;4858908;29;20089;-51
2022/11/14 10:31:27;;;;;;;17.38;7.40;;;18.10;1.00;;;;;;4857235;29;20094;-51
2022/11/14 10:34:27;;;;;;;17.08;8.73;;;18.10;1.00;;;;;;4857511;29;20064;-49
2022/11/14 10:37:26;;;;;;;13.68;8.20;;;18.10;1.00;;;;;;4857659;29;20117;-47
2022/11/14 10:40:14;;;;;;;12.27;7.40;;;18.10;1.00;;;;;;4856987;29;20132;-50
2022/11/14 10:43:07;;;;;;;13.60;8.30;;;18.10;1.00;;;;;;4857195;29;20109;-47
2022/11/14 10:46:08;;;;;;;15.48;8.45;;;18.10;1.00;;;;;;4856472;29;20082;-49
2022/11/14 10:48:53;;;;;;;13.77;7.40;;;18.10;1.00;;;;;;4855698;29;21428;-50
2022/11/14 10:51:49;;;;;;;12.57;7.38;;;18.10;1.00;;;;;;4859984;29;20193;-48
2022/11/14 10:54:47;;;;;;;10.85;7.60;;;18.10;1.00;;;;;;4861427;29;20105;-51
2022/11/14 10:57:33;;;;;;;12.48;7.40;;;18.10;1.00;;;;;;4863503;29;20560;-51
2022/11/14 11:00:21;;;;;;;12.02;7.22;;;18.10;1.00;;;;;;4859171;29;20056;-51
2022/11/14 11:03:07;;;;;;;12.60;7.28;;;18.10;1.00;;;;;;4859287;29;20065;-50
2022/11/14 11:05:56;;;;;;;11.93;7.50;;;18.10;1.00;;;;;;4861427;29;20080;-50
2022/11/14 11:11:56;;;;;;;;;;;18.10;1.00;;;;;;4860863;29;20053;-51
2022/11/14 11:14:43;;;;;;;11.85;7.25;;;18.10;1.00;;;;;;4859831;29;19930;-49
2022/11/14 11:17:28;;;;;;;11.18;7.22;;;18.10;1.00;;;;;;4859943;29;20053;-48
2022/11/14 11:20:38;;;;;;;10.68;7.95;;;18.10;1.00;;;;;;4858772;29;20056;-47
2022/11/14 11:23:26;;;;;;;11.90;7.25;;;18.10;1.00;;;;;;4860039;29;20436;-49
2022/11/14 11:26:16;;;;;;;12.13;7.68;;;18.10;1.00;;;;;;4860077;29;20124;-49
2022/11/14 11:29:05;;;;;;;12.00;8.15;;;18.10;1.00;;;;;;4859791;29;20063;-50
2022/11/14 11:31:53;;;;;;;12.25;7.30;;;18.10;1.00;;;;;;4858026;29;20084;-49
2022/11/14 11:34:39;;;;;;;12.32;7.53;;;18.10;1.00;;;;;;4859416;29;20112;-52
2022/11/14 11:37:29;;;;;;;16.58;7.78;;;18.10;1.00;;;;;;4860047;29;20059;-49
2022/11/14 11:40:22;;;;;;;13.80;8.00;;;18.10;1.00;;;;;;4859977;29;20079;-50
2022/11/14 11:43:20;;;;;;;13.00;7.95;;;18.10;1.00;;;;;;4859448;29;20064;-48
2022/11/14 11:46:47;;;;;;;11.57;6.88;;;18.10;1.00;;;;;;4860271;29;20061;-48
2022/11/14 11:49:42;;;;;;;11.57;7.20;;;18.10;1.00;;;;;;4860097;29;20052;-48
2022/11/14 11:52:41;;;;;;;11.45;7.10;;;18.10;1.00;;;;;;4860463;29;20056;-49
2022/11/14 11:55:31;;;;;;;10.77;7.57;;;18.10;1.00;;;;;;4860163;29;20084;-47
2022/11/14 11:58:27;;;;;;;11.55;7.30;;;18.10;1.00;;;;;;4860021;29;20536;-49
2022/11/14 12:01:13;;;;;;;16.65;8.85;;;18.10;1.00;;;;;;4859583;29;20049;-49
2022/11/14 12:04:00;;;;;;;13.93;8.82;;;18.10;1.00;;;;;;4859935;29;20158;-50
2022/11/14 12:07:06;;;;;;;15.13;9.13;;;18.10;1.00;;;;;;4857719;29;20053;-49
2022/11/14 12:09:53;;;;;;;14.10;8.65;;;18.00;1.00;;;;;;4857855;29;20060;-53
2022/11/14 12:13:20;;;;;;;11.82;7.97;;;18.00;1.00;;;;;;4858533;29;20085;-47
2022/11/14 12:16:29;;;;;;;15.82;8.52;;;18.00;1.00;;;;;;4859303;29;20144;-47
2022/11/14 12:19:42;;;;;;;31.52;8.05;;;18.00;1.00;;;;;;4858634;29;20130;-49
2022/11/14 12:22:36;;;;;;;11.95;7.50;;;18.00;1.00;;;;;;4857814;29;20062;-54
2022/11/14 12:25:41;;;;;;;14.73;8.32;;;18.00;1.00;;;;;;4858708;29;20531;-49
2022/11/14 12:28:39;;;;;;;10.23;6.63;;;18.00;1.00;;;;;;4859343;29;20056;-51
2022/11/14 12:31:29;;;;;;;10.50;6.82;;;17.90;1.00;;;;;;4858619;29;20511;-49
2022/11/14 12:34:31;;;;;;;12.57;7.63;;;17.90;1.00;;;;;;4858550;29;20116;-50
2022/11/14 12:37:35;;;;;;;11.65;7.53;;;18.00;1.00;;;;;;4859635;29;20067;-45
2022/11/14 12:40:26;;;;;;;11.88;7.72;;;17.90;1.00;;;;;;4857211;29;20153;-46
2022/11/14 12:43:35;;;;;;;9.30;6.35;;;17.90;1.00;;;;;;4859131;29;20056;-48
2022/11/14 12:46:22;;;;;;;13.07;7.32;;;17.90;1.00;;;;;;4857585;29;20185;-45
2022/11/14 12:49:49;;;;;;;11.25;6.63;;;17.90;1.00;;;;;;4857353;29;20542;-47
2022/11/14 12:52:42;;;;;;;9.43;6.80;;;17.90;1.00;;;;;;4857476;29;20060;-51
2022/11/14 12:55:30;;;;;;;10.38;6.13;;;17.90;1.00;;;;;;4859418;29;20103;-48
2022/11/14 12:58:29;;;;;;;8.48;5.95;;;17.90;1.00;;;;;;4861884;29;20180;-52
2022/11/14 13:01:51;;;;;;;9.45;6.35;;;17.90;1.00;;;;;;4877957;29;20153;-46
2022/11/14 13:04:42;;;;;;;10.30;5.97;;;17.90;1.00;;;;;;4861489;29;20527;-47
2022/11/14 13:07:58;;;;;;;10.70;6.45;;;17.80;1.00;;;;;;4873282;29;20056;-53
2022/11/14 13:10:44;;;;;;;9.48;6.28;;;17.80;1.00;;;;;;4864781;29;20077;-46
2022/11/14 13:23:00;;;;;;;9.40;5.93;;;17.80;1.00;;;;;;4869290;29;20530;-51
2022/11/14 13:25:45;;;;;;;14.02;6.63;;;17.80;1.00;;;;;;4860561;29;20052;-49
2022/11/14 13:28:37;;;;;;;12.23;5.88;;;17.80;1.00;;;;;;4879304;29;20064;-49
2022/11/14 13:31:34;;;;;;;11.38;6.38;;;17.80;1.00;;;;;;4879695;29;20128;-48
2022/11/14 13:34:44;;;;;;;13.10;7.05;;;17.80;1.00;;;;;;4879264;29;20124;-46
2022/11/14 13:37:48;;;;;;;9.13;5.85;;;17.80;1.00;;;;;;4879325;29;20101;-48
2022/11/14 13:40:43;;;;;;;11.43;5.93;;;17.70;1.00;;;;;;4878676;29;20056;-48
2022/11/14 13:43:31;;;;;;;9.38;5.35;;;17.70;1.00;;;;;;4879178;29;20400;-48
2022/11/14 13:46:56;;;;;;;9.90;5.88;;;17.70;1.00;;;;;;4878916;29;20056;-50
2022/11/14 13:49:56;;;;;;;12.48;6.25;;;17.70;1.00;;;;;;4877639;29;20117;-49
2022/11/14 13:52:45;;;;;;;10.55;6.22;;;17.70;1.00;;;;;;4878857;29;20067;-50
2022/11/14 13:55:48;;;;;;;13.57;6.80;;;17.70;1.00;;;;;;4879204;29;20072;-49
2022/11/14 13:58:58;;;;;;;9.63;6.07;;;17.70;1.00;;;;;;4878788;29;20080;-50
2022/11/14 14:01:46;;;;;;;10.23;5.43;;;17.70;1.00;;;;;;4878898;29;20172;-48
2022/11/14 14:05:00;;;;;;;11.38;6.45;;;17.70;1.00;;;;;;4878782;29;20060;-48
2022/11/14 14:08:16;;;;;;;10.85;6.30;;;17.70;1.00;;;;;;4878673;29;20055;-48
2022/11/14 14:11:30;;;;;;;13.07;5.95;;;17.60;1.00;;;;;;4878801;29;20055;-49
2022/11/14 14:14:35;;;;;;;10.40;6.43;;;17.60;1.00;;;;;;4857030;29;20057;-47
2022/11/14 14:17:42;;;;;;;10.65;6.10;;;17.60;1.00;;;;;;4841393;29;20530;-47
2022/11/14 14:20:51;;;;;;;13.32;6.03;;;17.60;1.00;;;;;;4841357;29;20050;-53
2022/11/14 14:23:50;;;;;;;10.32;5.95;;;17.60;1.00;;;;;;4841605;29;20190;-48
2022/11/14 14:27:14;;;;;;;9.35;6.32;;;17.60;1.00;;;;;;4844815;29;20076;-51
2022/11/14 14:30:06;;;;;;;10.27;6.63;;;17.60;1.00;;;;;;4770125;30;20075;-51
2022/11/14 14:33:11;;;;;;;11.63;6.13;;;17.60;1.00;;;;;;4731522;30;1205037;-49
2022/11/14 14:35:57;;;;;;;10.82;5.70;;;17.60;1.00;;;;;;4846458;29;20068;-49
2022/11/14 14:38:42;;;;;;;8.60;5.78;;;17.60;1.00;;;;;;4845677;29;20060;-50
2022/11/14 14:41:31;;;;;;;10.50;5.85;;;17.60;1.00;;;;;;4845918;29;20048;-48
2022/11/14 14:44:30;;;;;;;10.00;6.53;;;17.60;1.00;;;;;;4845876;29;20141;-49
2022/11/14 14:47:31;;;;;;;9.38;6.07;;;17.60;1.00;;;;;;4845741;29;20057;-46
2022/11/14 14:50:31;;;;;;;13.02;6.60;;;17.60;1.00;;;;;;4845241;29;20179;-46
2022/11/14 14:53:26;;;;;;;11.63;5.57;;;17.60;1.00;;;;;;4845407;29;20056;-50
2022/11/14 14:56:25;;;;;;;10.93;5.97;;;17.60;1.00;;;;;;4845586;29;20064;-48
2022/11/14 14:59:20;;;;;;;8.23;5.65;;;17.50;1.00;;;;;;4845084;29;20224;-48
2022/11/14 15:02:15;;;;;;;11.88;6.53;;;17.50;1.00;;;;;;4845704;29;20141;-51